Time;durP1;ratioP1;P1;durP2;ratioP2;P2;SDS_P1;SDS_P2;PMS_P1;PMS_P2;Temp;Humidity;BMP_temperature;BMP_pressure;BME280_temperature;BME280_humidity;BME280_pressure;Samples;Min_cycle;Max_cycle;Signal;HPM_P1;HPM_P2
2023/01/27 00:00:32;;;;;;;;;;;;;;;;;;5073705;28;20402;-59
2023/01/27 00:02:57;;;;;;;;;;;;;;;;;;5072036;28;19927;-59
2023/01/27 00:05:23;;;;;;;;;;;;;;;;;;5074291;28;19920;-58
2023/01/27 00:07:49;;;;;;;;;;;;;;;;;;5075755;28;19924;-59
2023/01/27 00:10:15;;;;;;;;;;;;;;;;;;5067938;28;19921;-58
2023/01/27 00:15:26;;;;;;;;;;;;;;;;;;5067999;28;19924;-58
2023/01/27 00:17:52;;;;;;;;;;;;;;;;;;5064953;28;19936;-61
2023/01/27 00:24:34;;;;;;;;;;;;;;;;;;5069172;28;19920;-59
2023/01/27 00:25:57;;;;;;;;;;;;;;;;;;5066393;28;19920;-58
2023/01/27 00:28:24;;;;;;;;;;;;;;;;;;5065887;28;19920;-60
2023/01/27 00:30:50;;;;;;;;;;;;;;;;;;5066521;28;20062;-58
2023/01/27 00:33:28;;;;;;;;;;;;;;;;;;5065935;28;20007;-60
2023/01/27 00:35:54;;;;;;;;;;;;;;;;;;5065632;28;19921;-58
2023/01/27 00:38:20;;;;;;;;;;;;;;;;;;5065069;28;19925;-59
2023/01/27 00:41:14;;;;;;;;;;;;;;;;;;5066119;28;19921;-59
2023/01/27 00:43:32;;;;;;;;;;;;;;;;;;5065432;28;19947;-59
2023/01/27 00:45:57;;;;;;;;;;;;;;;;;;5069080;28;20089;-58
2023/01/27 00:48:23;;;;;;;;;;;;;;;;;;5065685;28;19921;-59
2023/01/27 00:50:49;;;;;;;;;;;;;;;;;;5067199;28;19959;-58
2023/01/27 00:53:15;;;;;;;;;;;;;;;;;;5068211;28;20027;-60
2023/01/27 00:55:41;;;;;;;;;;;;;;;;;;5068901;28;19924;-60
2023/01/27 00:58:07;;;;;;;;;;;;;;;;;;5065073;28;20057;-59
2023/01/27 01:00:33;;;;;;;;;;;;;;;;;;5064515;28;19928;-58
2023/01/27 01:02:59;;;;;;;;;;;;;;;;;;5064775;28;20025;-60
2023/01/27 01:05:25;;;;;;;;;;;;;;;;;;5065092;28;20557;-59
2023/01/27 01:07:51;;;;;;;;;;;;;;;;;;5064139;28;19920;-58
2023/01/27 01:10:16;;;;;;;;;;;;;;;;;;5065871;28;19920;-59
2023/01/27 01:12:42;;;;;;;;;;;;;;;;;;5069103;28;19931;-60
2023/01/27 01:15:08;;;;;;;;;;;;;;;;;;5068872;28;19925;-59
2023/01/27 01:17:34;;;;;;;;;;;;;;;;;;5064336;28;19928;-60
2023/01/27 01:20:00;;;;;;;;;;;;;;;;;;5065044;28;20407;-59
2023/01/27 01:22:26;;;;;;;;;;;;;;;;;;5064705;28;19963;-58
2023/01/27 01:24:52;;;;;;;;;;;;;;;;;;5065053;28;20054;-59
2023/01/27 01:27:18;;;;;;;;;;;;;;;;;;5064124;28;19927;-58
2023/01/27 01:29:44;;;;;;;;;;;;;;;;;;5073163;28;20439;-59
2023/01/27 01:32:10;;;;;;;;;;;;;;;;;;5064688;28;20372;-59
2023/01/27 01:34:36;;;;;;;;;;;;;;;;;;5064089;28;19924;-60
2023/01/27 01:37:02;;;;;;;;;;;;;;;;;;5064828;28;19930;-58
2023/01/27 01:39:28;;;;;;;;;;;;;;;;;;5072911;28;19925;-58
2023/01/27 01:41:54;;;;;;;;;;;;;;;;;;5063321;28;20364;-59
2023/01/27 01:44:20;;;;;;;;;;;;;;;;;;5065464;28;19926;-59
2023/01/27 01:46:46;;;;;;;;;;;;;;;;;;5064998;28;19986;-58
2023/01/27 01:49:12;;;;;;;;;;;;;;;;;;5068152;28;20375;-59
2023/01/27 01:51:38;;;;;;;;;;;;;;;;;;5064988;28;20541;-58
2023/01/27 01:54:04;;;;;;;;;;;;;;;;;;5064666;28;19974;-59
2023/01/27 01:56:30;;;;;;;;;;;;;;;;;;5068630;28;19924;-58
2023/01/27 01:58:56;;;;;;;;;;;;;;;;;;5064353;28;19921;-60
2023/01/27 02:01:21;;;;;;;;;;;;;;;;;;5064467;28;19947;-58
2023/01/27 02:03:47;;;;;;;;;;;;;;;;;;5064080;28;19921;-57
2023/01/27 02:06:13;;;;;;;;;;;;;;;;;;5065472;28;20031;-58
2023/01/27 02:08:39;;;;;;;;;;;;;;;;;;5064417;28;19924;-59
2023/01/27 02:11:05;;;;;;;;;;;;;;;;;;5063855;28;19928;-58
2023/01/27 02:13:31;;;;;;;;;;;;;;;;;;5067726;28;19931;-59
2023/01/27 02:15:57;;;;;;;;;;;;;;;;;;5064196;28;19920;-60
2023/01/27 02:18:23;;;;;;;;;;;;;;;;;;5063655;28;19943;-60
2023/01/27 02:20:49;;;;;;;;;;;;;;;;;;5064884;28;19927;-58
2023/01/27 02:23:15;;;;;;;;;;;;;;;;;;5066569;28;19978;-59
2023/01/27 02:25:41;;;;;;;;;;;;;;;;;;5066583;28;20435;-58
2023/01/27 02:28:07;;;;;;;;;;;;;;;;;;5064317;28;20302;-60
2023/01/27 02:30:33;;;;;;;;;;;;;;;;;;5067581;28;19920;-58
2023/01/27 02:32:59;;;;;;;;;;;;;;;;;;5066689;28;19920;-58
2023/01/27 02:35:25;;;;;;;;;;;;;;;;;;5064144;28;19924;-57
2023/01/27 02:37:50;;;;;;;;;;;;;;;;;;5067622;28;20395;-58
2023/01/27 02:40:16;;;;;;;;;;;;;;;;;;5067579;28;20003;-56
2023/01/27 02:42:42;;;;;;;;;;;;;;;;;;5066207;28;20411;-56
2023/01/27 02:45:08;;;;;;;;;;;;;;;;;;5067434;28;19931;-56
2023/01/27 02:47:34;;;;;;;;;;;;;;;;;;5070117;28;19924;-58
2023/01/27 02:50:00;;;;;;;;;;;;;;;;;;5063863;28;19924;-56
2023/01/27 02:52:26;;;;;;;;;;;;;;;;;;5063221;28;19920;-56
2023/01/27 02:54:52;;;;;;;;;;;;;;;;;;5068281;28;19978;-57
2023/01/27 02:57:19;;;;;;;;;;;;;;;;;;5072457;28;19920;-57
2023/01/27 02:59:44;;;;;;;;;;;;;;;;;;5072176;28;20272;-56
2023/01/27 03:02:17;;;;;;;;;;;;;;;;;;5067873;28;19928;-57
2023/01/27 03:04:43;;;;;;;;;;;;;;;;;;5068090;28;19925;-58
2023/01/27 03:07:09;;;;;;;;;;;;;;;;;;5069233;28;19920;-58
2023/01/27 03:09:35;;;;;;;;;;;;;;;;;;5067232;28;20386;-58
2023/01/27 03:12:19;;;;;;;;;;;;;;;;;;5066907;28;19920;-58
2023/01/27 03:20:14;;;;;;;;;;;;;;;;;;5070949;28;19920;-57
2023/01/27 03:22:40;;;;;;;;;;;;;;;;;;5066973;28;19928;-58
2023/01/27 03:25:06;;;;;;;;;;;;;;;;;;5066896;28;19954;-58
2023/01/27 03:27:32;;;;;;;;;;;;;;;;;;5070916;28;20265;-58
2023/01/27 03:29:58;;;;;;;;;;;;;;;;;;5069091;28;19920;-57
2023/01/27 03:32:24;;;;;;;;;;;;;;;;;;5067051;28;19974;-57
2023/01/27 03:34:50;;;;;;;;;;;;;;;;;;5072337;28;20272;-57
2023/01/27 03:48:17;;;;;;;;;;;;;;;;;;5072998;28;19924;-58
2023/01/27 03:50:43;;;;;;;;;;;;;;;;;;5071674;28;20783;-57
2023/01/27 03:53:09;;;;;;;;;;;;;;;;;;5068770;28;19920;-58
2023/01/27 03:55:35;;;;;;;;;;;;;;;;;;5065688;28;19924;-58
2023/01/27 03:58:13;;;;;;;;;;;;;;;;;;5066170;28;19924;-58
2023/01/27 04:00:39;;;;;;;;;;;;;;;;;;5067022;28;19973;-58
2023/01/27 04:08:34;;;;;;;;;;;;;;;;;;5078134;28;20102;-59
2023/01/27 04:13:44;;;;;;;;;;;;;;;;;;5073860;28;20058;-57
2023/01/27 04:16:10;;;;;;;;;;;;;;;;;;5076069;28;20027;-58
2023/01/27 04:18:36;;;;;;;;;;;;;;;;;;5076387;28;19920;-58
2023/01/27 04:21:03;;;;;;;;;;;;;;;;;;5079206;28;19973;-58
2023/01/27 04:23:29;;;;;;;;;;;;;;;;;;5075886;28;19974;-58
2023/01/27 04:25:55;;;;;;;;;;;;;;;;;;5075684;28;19969;-58
2023/01/27 04:28:21;;;;;;;;;;;;;;;;;;5075813;28;19924;-57
2023/01/27 04:30:47;;;;;;;;;;;;;;;;;;5075749;28;19973;-57
2023/01/27 04:33:14;;;;;;;;;;;;;;;;;;5077580;28;19920;-57
2023/01/27 04:35:41;;;;;;;;;;;;;;;;;;5076771;28;19924;-59
2023/01/27 04:38:07;;;;;;;;;;;;;;;;;;5067491;28;19935;-58
2023/01/27 04:40:33;;;;;;;;;;;;;;;;;;5065282;28;19920;-58
2023/01/27 04:42:59;;;;;;;;;;;;;;;;;;5065394;28;19924;-59
2023/01/27 04:45:24;;;;;;;;;;;;;;;;;;5071413;28;20541;-58
2023/01/27 04:47:50;;;;;;;;;;;;;;;;;;5065163;28;19927;-57
2023/01/27 04:50:16;;;;;;;;;;;;;;;;;;5069820;28;20403;-57
2023/01/27 04:52:44;;;;;;;;;;;;;;;;;;5067418;28;19924;-57
2023/01/27 04:55:09;;;;;;;;;;;;;;;;;;5071236;28;19932;-59
2023/01/27 04:57:35;;;;;;;;;;;;;;;;;;5065193;28;19925;-58
2023/01/27 05:00:01;;;;;;;;;;;;;;;;;;5065352;28;19924;-58
2023/01/27 05:02:27;;;;;;;;;;;;;;;;;;5068465;28;19968;-59
2023/01/27 05:04:53;;;;;;;;;;;;;;;;;;5069364;28;20015;-57
2023/01/27 05:07:19;;;;;;;;;;;;;;;;;;5064563;28;19921;-57
2023/01/27 05:09:45;;;;;;;;;;;;;;;;;;5065321;28;19928;-57
2023/01/27 05:12:11;;;;;;;;;;;;;;;;;;5064946;28;20461;-57
2023/01/27 05:14:37;;;;;;;;;;;;;;;;;;5068184;28;20327;-58
2023/01/27 05:17:03;;;;;;;;;;;;;;;;;;5065629;28;19924;-57
2023/01/27 05:19:28;;;;;;;;;;;;;;;;;;5074932;28;19920;-58
2023/01/27 05:21:54;;;;;;;;;;;;;;;;;;5073177;28;19947;-57
2023/01/27 05:24:20;;;;;;;;;;;;;;;;;;5073573;28;19966;-58
2023/01/27 05:26:46;;;;;;;;;;;;;;;;;;5071828;28;20106;-58
2023/01/27 05:29:12;;;;;;;;;;;;;;;;;;5074709;28;19924;-59
2023/01/27 05:31:38;;;;;;;;;;;;;;;;;;5073121;28;19932;-57
2023/01/27 05:34:04;;;;;;;;;;;;;;;;;;5073271;28;19977;-58
2023/01/27 05:36:30;;;;;;;;;;;;;;;;;;5073301;28;20361;-58
2023/01/27 05:38:56;;;;;;;;;;;;;;;;;;5073962;28;19920;-57
2023/01/27 05:41:21;;;;;;;;;;;;;;;;;;5075406;28;19931;-56
2023/01/27 05:43:47;;;;;;;;;;;;;;;;;;5075292;28;19924;-57
2023/01/27 05:46:13;;;;;;;;;;;;;;;;;;5075258;28;19982;-57
2023/01/27 05:48:39;;;;;;;;;;;;;;;;;;5072537;28;19928;-59
2023/01/27 05:51:05;;;;;;;;;;;;;;;;;;5073482;28;19931;-58
2023/01/27 05:53:31;;;;;;;;;;;;;;;;;;5071440;28;19927;-58
2023/01/27 05:55:57;;;;;;;;;;;;;;;;;;5074441;28;19935;-57
2023/01/27 05:58:23;;;;;;;;;;;;;;;;;;5076326;28;19947;-58
2023/01/27 06:00:49;;;;;;;;;;;;;;;;;;5074198;28;19920;-58
2023/01/27 06:03:15;;;;;;;;;;;;;;;;;;5072080;28;19925;-57
2023/01/27 06:05:40;;;;;;;;;;;;;;;;;;5073375;28;20372;-57
2023/01/27 06:08:06;;;;;;;;;;;;;;;;;;5075741;28;19927;-58
2023/01/27 06:10:36;;;;;;;;;;;;;;;;;;5063591;28;19928;-58
2023/01/27 06:13:02;;;;;;;1.17;0.90;;;;;;;;;;5072446;28;19924;-58
2023/01/27 06:15:28;;;;;;;3.45;0.68;;;;;;;;;;5071703;28;20120;-57
2023/01/27 06:17:53;;;;;;;;;;;;;;;;;;5075107;28;20131;-57
2023/01/27 06:20:19;;;;;;;;;;;;;;;;;;5072595;28;19924;-58
2023/01/27 06:22:46;;;;;;;;;;;;;;;;;;5072752;28;20062;-57
2023/01/27 06:25:12;;;;;;;;;;;;;;;;;;5072000;28;20003;-58
2023/01/27 06:27:38;;;;;;;;;;;;;;;;;;5074630;28;20344;-58
2023/01/27 06:30:04;;;;;;;;;;;;;;;;;;5077567;28;20380;-58
2023/01/27 06:32:30;;;;;;;;;;;;;;;;;;5076214;28;19928;-57
2023/01/27 06:34:56;;;;;;;;;;;;;;;;;;5078155;28;20406;-58
2023/01/27 06:37:22;;;;;;;3.13;0.95;;;;;;;;;;5077823;28;19935;-57
2023/01/27 06:39:48;;;;;;;1.10;0.98;;;;;;;;;;5078263;28;20041;-57
2023/01/27 06:42:14;;;;;;;0.68;0.52;;;;;;;;;;5079485;28;20046;-57
2023/01/27 06:44:40;;;;;;;;;;;;;;;;;;5075518;28;20131;-59
2023/01/27 06:47:06;;;;;;;;;;;;;;;;;;5076287;28;20380;-57
2023/01/27 06:49:32;;;;;;;;;;;;;;;;;;5076492;28;19924;-58
2023/01/27 06:51:57;;;;;;;;;;;;;;;;;;5075035;28;19920;-57
2023/01/27 06:54:23;;;;;;;;;;;;;;;;;;5077133;28;20600;-57
2023/01/27 06:56:49;;;;;;;;;;;;;;;;;;5078614;28;19959;-58
2023/01/27 06:59:15;;;;;;;;;;;;;;;;;;5079296;28;19928;-57
2023/01/27 07:01:41;;;;;;;;;;;;;;;;;;5078610;28;19927;-57
2023/01/27 07:04:07;;;;;;;;;;;;;;;;;;5077539;28;19927;-57
2023/01/27 07:06:33;;;;;;;;;;;;;;;;;;5074665;28;20019;-57
2023/01/27 07:08:59;;;;;;;;;;;;;;;;;;5076161;28;19920;-57
2023/01/27 07:11:25;;;;;;;;;;;;;;;;;;5076354;28;20397;-57
2023/01/27 07:13:51;;;;;;;;;;;;;;;;;;5075547;28;19931;-57
2023/01/27 07:16:16;;;;;;;;;;;;;;;;;;5077434;28;19926;-58
2023/01/27 07:18:42;;;;;;;;;;;;;;;;;;5077144;28;19934;-57
2023/01/27 07:21:08;;;;;;;;;;;;;;;;;;5072253;28;20437;-58
2023/01/27 07:23:34;;;;;;;;;;;;;;;;;;5078680;28;20006;-58
2023/01/27 07:26:00;;;;;;;;;;;;;;;;;;5076562;28;19920;-58
2023/01/27 07:28:26;;;;;;;;;;;;;;;;;;5077218;28;20479;-58
2023/01/27 07:30:52;;;;;;;;;;;;;;;;;;5076854;28;19924;-58
2023/01/27 07:33:18;;;;;;;;;;;;;;;;;;5081409;28;19920;-58
2023/01/27 07:35:44;;;;;;;;;;;;;;;;;;5077987;28;19967;-57
2023/01/27 07:38:09;;;;;;;;;;;;;;;;;;5078232;28;19967;-57
2023/01/27 07:40:35;;;;;;;;;;;;;;;;;;5074440;28;19966;-57
2023/01/27 07:43:01;;;;;;;;;;;;;;;;;;5078856;28;20015;-57
2023/01/27 07:45:27;;;;;;;;;;;;;;;;;;5079048;28;20303;-58
2023/01/27 07:47:53;;;;;;;;;;;;;;;;;;5082000;28;19927;-54
2023/01/27 07:50:20;;;;;;;;;;;;;;;;;;5078612;28;19969;-58
2023/01/27 07:52:46;;;;;;;;;;;;;;;;;;5078655;28;19928;-54
2023/01/27 07:55:12;;;;;;;;;;;;;;;;;;5074835;28;19986;-56
2023/01/27 07:57:37;;;;;;;;;;;;;;;;;;5076319;28;19924;-58
2023/01/27 08:00:04;;;;;;;;;;;;;;;;;;5075248;28;20283;-60
2023/01/27 08:02:30;;;;;;;;;;;;;;;;;;5076838;28;19968;-56
2023/01/27 08:04:56;;;;;;;;;;;;;;;;;;5078476;28;20346;-57
2023/01/27 08:07:22;;;;;;;;;;;;;;;;;;5078779;28;19929;-56
2023/01/27 08:09:48;;;;;;;;;;;;;;;;;;5077615;28;20375;-58
2023/01/27 08:12:14;;;;;;;;;;;;;;;;;;5075215;28;19927;-57
2023/01/27 08:14:40;;;;;;;;;;;;;;;;;;5076512;28;19921;-56
2023/01/27 08:17:05;;;;;;;;;;;;;;;;;;5076702;28;19924;-59
2023/01/27 08:19:31;;;;;;;;;;;;;;;;;;5080045;28;19928;-57
2023/01/27 08:21:57;;;;;;;;;;;;;;;;;;5078415;28;20467;-56
2023/01/27 08:24:23;;;;;;;;;;;;;;;;;;5080227;28;19924;-57
2023/01/27 08:26:49;;;;;;;;;;;;;;;;;;5087913;28;19920;-56
2023/01/27 08:29:15;;;;;;;;;;;;;;;;;;5079561;28;20531;-58
2023/01/27 08:31:41;;;;;;;;;;;;;;;;;;5085379;28;19924;-56
2023/01/27 08:34:07;;;;;;;;;;;;;;;;;;5078621;28;20041;-56
2023/01/27 08:36:33;;;;;;;;;;;;;;;;;;5087217;28;20405;-56
2023/01/27 08:38:59;;;;;;;;;;;;;;;;;;5087748;28;20006;-57
2023/01/27 08:41:25;;;;;;;;;;;;;;;;;;5082881;28;19926;-57
2023/01/27 08:43:50;;;;;;;;;;;;;;;;;;5073784;28;19923;-56
2023/01/27 08:46:16;;;;;;;;;;;;;;;;;;5079515;28;19927;-56
2023/01/27 08:48:42;;;;;;;;;;;;;;;;;;5082735;28;19923;-58
2023/01/27 08:51:08;;;;;;;;;;;;;;;;;;5078235;28;19931;-56
2023/01/27 08:53:35;;;;;;;;;;;;;;;;;;5083694;28;19966;-57
2023/01/27 08:56:01;;;;;;;;;;;;;;;;;;5084456;28;20020;-57
2023/01/27 08:58:27;;;;;;;;;;;;;;;;;;5079088;28;20011;-56
2023/01/27 09:00:53;;;;;;;;;;;;;;;;;;5086251;28;19924;-56
2023/01/27 09:03:19;;;;;;;;;;;;;;;;;;5079948;28;20294;-56
2023/01/27 09:05:45;;;;;;;;;;;;;;;;;;5079480;28;20299;-56
2023/01/27 09:08:11;;;;;;;;;;;;;;;;;;5086414;28;20398;-58
2023/01/27 09:10:37;;;;;;;;;;;;;;;;;;5073704;28;19920;-58
2023/01/27 09:13:03;;;;;;;;;;;;;;;;;;5074976;28;19932;-56
2023/01/27 09:15:30;;;;;;;;;;;;;;;;;;5074779;28;20006;-56
2023/01/27 09:17:56;;;;;;;;;;;;;;;;;;5076698;28;20327;-56
2023/01/27 09:20:22;;;;;;;1.20;0.70;;;;;;;;;;5079833;28;19924;-57
2023/01/27 09:22:48;;;;;;;1.15;0.80;;;;;;;;;;5085750;28;20040;-56
2023/01/27 09:25:16;;;;;;;1.77;0.50;;;;;;;;;;5069547;28;20055;-56
2023/01/27 09:27:42;;;;;;;2.53;0.75;;;;;;;;;;5079520;28;20048;-56
2023/01/27 09:30:10;;;;;;;0.95;0.80;;;;;;;;;;5070152;28;20048;-56
2023/01/27 09:32:36;;;;;;;1.80;0.50;;;;;;;;;;5066569;28;20036;-56
2023/01/27 09:35:02;;;;;;;3.50;0.82;;;;;;;;;;5082206;28;20044;-57
2023/01/27 09:37:28;;;;;;;4.40;1.10;;;;;;;;;;5069638;28;20059;-57
2023/01/27 09:39:59;;;;;;;1.63;0.70;;;;;;;;;;5067630;28;20044;-56
2023/01/27 09:42:25;;;;;;;3.92;1.27;;;;;;;;;;5066572;28;20036;-56
2023/01/27 09:45:03;;;;;;;2.80;1.08;;;;;;;;;;5066602;28;20052;-57
2023/01/27 09:47:29;;;;;;;2.67;0.85;;;;;;;;;;5069144;28;20040;-56
2023/01/27 09:50:01;;;;;;;1.55;0.60;;;;;;;;;;5067012;28;20055;-56
2023/01/27 09:52:37;;;;;;;2.17;1.13;;;;;;;;;;5066193;28;20040;-56
2023/01/27 09:55:35;;;;;;;3.15;1.00;;;;;;;;;;5071734;28;20044;-56
2023/01/27 09:58:13;;;;;;;3.30;0.93;;;;;;;;;;5036554;28;20063;-56
2023/01/27 10:00:53;;;;;;;1.65;0.90;;;;;;;;;;5076647;28;20086;-57
2023/01/27 10:03:19;;;;;;;0.73;0.52;;;;;;;;;;5071309;28;20052;-56
2023/01/27 10:05:53;;;;;;;3.58;1.02;;;;;;;;;;5086051;28;20047;-57
2023/01/27 10:08:32;;;;;;;1.50;1.00;;;;;;;;;;5078021;28;20089;-56
2023/01/27 10:11:19;;;;;;;3.75;1.15;;;;;;;;;;5073362;28;20083;-56
2023/01/27 10:13:54;;;;;;;2.88;0.73;;;;;;;;;;5086855;28;20052;-58
2023/01/27 10:16:33;;;;;;;1.02;0.55;;;;;;;;;;5083480;28;20052;-56
2023/01/27 10:19:06;;;;;;;1.58;0.50;;;;;;;;;;5073176;28;20044;-57
2023/01/27 10:21:32;;;;;;;;;;;;;;;;;;5072054;28;20520;-56
2023/01/27 10:24:13;;;;;;;1.40;0.68;;;;;;;;;;5088354;28;19920;-57
2023/01/27 10:26:41;;;;;;;0.77;0.63;;;;;;;;;;5089003;28;20853;-58
2023/01/27 10:29:16;;;;;;;2.42;0.70;;;;;;;;;;5075701;28;20048;-56
2023/01/27 10:31:49;;;;;;;2.42;0.98;;;;;;;;;;5073959;28;20040;-56
2023/01/27 10:34:27;;;;;;;1.05;0.80;;;;;;;;;;5073188;28;20041;-56
2023/01/27 10:37:16;;;;;;;0.85;0.80;;;;;;;;;;5081216;28;20123;-56
2023/01/27 10:39:52;;;;;;;3.20;0.82;;;;;;;;;;5052211;28;20139;-58
2023/01/27 10:42:33;;;;;;;1.02;0.85;;;;;;;;;;5088079;28;20447;-56
2023/01/27 10:45:08;;;;;;;1.17;0.68;;;;;;;;;;5074163;28;20048;-56
2023/01/27 10:47:40;;;;;;;0.98;0.80;;;;;;;;;;5083992;28;20035;-56
2023/01/27 10:50:08;;;;;;;0.65;0.40;;;;;;;;;;5068235;28;20044;-56
2023/01/27 10:52:45;;;;;;;0.50;0.50;;;;;;;;;;5073799;28;20462;-56
2023/01/27 10:55:20;;;;;;;0.93;0.32;;;;;;;;;;5076328;28;20078;-55
2023/01/27 10:57:59;;;;;;;0.50;0.50;;;;;;;;;;5081674;28;20044;-56
2023/01/27 11:00:25;;;;;;;0.50;0.50;;;;;;;;;;5084827;28;20102;-56
2023/01/27 11:03:00;;;;;;;0.75;0.55;;;;;;;;;;5084337;28;20384;-56
2023/01/27 11:05:43;;;;;;;0.60;0.60;;;;;;;;;;5075415;28;20051;-55
2023/01/27 11:08:14;;;;;;;0.40;0.40;;;;;;;;;;5072960;28;20044;-55
2023/01/27 11:13:29;;;;;;;0.60;0.60;;;;;;;;;;5080106;28;20045;-56
2023/01/27 11:15:56;;;;;;;0.65;0.65;;;;;;;;;;5079111;28;20055;-56
2023/01/27 11:18:23;;;;;;;0.60;0.47;;;;;;;;;;5084105;28;20048;-55
2023/01/27 11:20:52;;;;;;;0.73;0.50;;;;;;;;;;5076645;28;20048;-56
2023/01/27 11:23:29;;;;;;;2.40;1.00;;;;;;;;;;5075173;28;20052;-55
2023/01/27 11:26:00;;;;;;;2.30;0.90;;;;;;;;;;5067401;28;20464;-56
2023/01/27 11:28:26;;;;;;;1.10;1.00;;;;;;;;;;5073734;28;20404;-56
2023/01/27 11:31:16;;;;;;;1.83;1.00;;;;;;;;;;5070976;28;20052;-55
2023/01/27 11:33:50;;;;;;;1.65;1.00;;;;;;;;;;5068708;28;20873;-56
2023/01/27 11:36:17;;;;;;;1.20;1.10;;;;;;;;;;5088238;28;20043;-56
2023/01/27 11:38:43;;;;;;;1.92;1.52;;;;;;;;;;5072344;28;20072;-56
2023/01/27 11:41:10;;;;;;;2.33;1.50;;;;;;;;;;5076278;28;20044;-58
2023/01/27 11:43:37;;;;;;;2.95;1.15;;;;;;;;;;5079481;28;20044;-57
2023/01/27 11:46:05;;;;;;;1.33;1.20;;;;;;;;;;5072777;28;20044;-56
2023/01/27 11:48:39;;;;;;;2.20;1.27;;;;;;;;;;5075709;28;20045;-57
2023/01/27 11:51:09;;;;;;;2.75;1.70;;;;;;;;;;5081461;28;20052;-57
2023/01/27 11:53:39;;;;;;;1.80;1.70;;;;;;;;;;5087284;28;20040;-56
2023/01/27 11:56:08;;;;;;;1.90;1.80;;;;;;;;;;5079053;28;20048;-56
2023/01/27 11:58:45;;;;;;;1.75;1.63;;;;;;;;;;5086318;28;20036;-58
2023/01/27 12:01:14;;;;;;;3.70;1.40;;;;;;;;;;5079337;28;20040;-56
2023/01/27 12:03:59;;;;;;;1.55;1.45;;;;;;;;;;5081542;28;20051;-56
2023/01/27 12:06:37;;;;;;;2.10;1.90;;;;;;;;;;5072956;28;20037;-55
2023/01/27 12:09:03;;;;;;;2.42;2.20;;;;;;;;;;5081558;28;20051;-58
2023/01/27 12:11:30;;;;;;;1.60;1.50;;;;;;;;;;5087828;28;20040;-56
2023/01/27 12:13:58;;;;;;;2.10;1.98;;;;;;;;;;5075029;28;20063;-56
2023/01/27 12:16:26;;;;;;;2.03;1.88;;;;;;;;;;5070102;28;20055;-57
2023/01/27 12:19:01;;;;;;;1.70;1.60;;;;;;;;;;5076869;28;20531;-56
2023/01/27 12:21:47;;;;;;;2.00;1.90;;;;;;;;;;5082983;28;20056;-56
2023/01/27 12:24:26;;;;;;;2.30;2.17;;;;;;;;;;5079777;28;20044;-56
2023/01/27 12:26:53;;;;;;;1.85;1.75;;;;;;;;;;5085358;28;20377;-56
2023/01/27 12:29:22;;;;;;;1.77;1.67;;;;;;;;;;5084654;28;20048;-56
2023/01/27 12:31:50;;;;;;;2.03;1.80;;;;;;;;;;5086379;28;20182;-57
2023/01/27 12:34:30;;;;;;;1.90;1.80;;;;;;;;;;5080927;28;20044;-56
2023/01/27 12:36:57;;;;;;;2.50;2.35;;;;;;;;;;5066413;28;20068;-56
2023/01/27 12:39:26;;;;;;;2.90;2.70;;;;;;;;;;5067389;28;20055;-56
2023/01/27 12:41:53;;;;;;;2.70;2.50;;;;;;;;;;5087296;28;20094;-55
2023/01/27 12:44:21;;;;;;;2.47;2.28;;;;;;;;;;5072746;28;20404;-57
2023/01/27 12:47:01;;;;;;;1.88;1.77;;;;;;;;;;5077310;28;20044;-57
2023/01/27 12:49:32;;;;;;;2.20;2.10;;;;;;;;;;5087232;28;20462;-56
2023/01/27 12:52:01;;;;;;;1.98;1.88;;;;;;;;;;5079771;28;20035;-57
2023/01/27 12:54:28;;;;;;;2.03;1.88;;;;;;;;;;5082650;28;20386;-57
2023/01/27 12:57:00;;;;;;;1.90;1.80;;;;;;;;;;5075125;28;20377;-59
2023/01/27 12:59:26;;;;;;;2.47;2.28;;;;;;;;;;5079016;28;20511;-58
2023/01/27 13:02:10;;;;;;;2.10;2.00;;;;;;;;;;5075842;28;20169;-57
2023/01/27 13:04:37;;;;;;;2.60;1.58;;;;;;;;;;5076234;28;20509;-56
2023/01/27 13:07:07;;;;;;;1.83;1.73;;;;;;;;;;5075560;28;20093;-56
2023/01/27 13:09:55;;;;;;;1.60;1.50;;;;;;;;;;5079412;28;20535;-56
2023/01/27 13:12:26;;;;;;;1.67;1.58;;;;;;;;;;5080073;28;20047;-56
2023/01/27 13:14:57;;;;;;;1.50;1.40;;;;;;;;;;5083171;28;20117;-57
2023/01/27 13:17:35;;;;;;;1.40;1.30;;;;;;;;;;5085341;28;20048;-58
2023/01/27 13:20:03;;;;;;;1.42;1.27;;;;;;;;;;5080739;28;20047;-57
2023/01/27 13:22:34;;;;;;;1.23;1.15;;;;;;;;;;5083857;28;20035;-56
2023/01/27 13:25:02;;;;;;;1.20;1.10;;;;;;;;;;5083104;28;20039;-57
2023/01/27 13:27:32;;;;;;;1.33;1.23;;;;;;;;;;5085372;28;20047;-56
2023/01/27 13:30:02;;;;;;;1.50;1.40;;;;;;;;;;5084040;28;20048;-56
2023/01/27 13:32:31;;;;;;;1.65;1.52;;;;;;;;;;5084043;28;20038;-57
2023/01/27 13:35:15;;;;;;;1.50;1.40;;;;;;;;;;5079979;28;20044;-57
2023/01/27 13:38:14;;;;;;;1.00;1.00;;;;;;;;;;5084012;28;20511;-57
2023/01/27 13:40:44;;;;;;;2.40;1.75;;;;;;;;;;5046328;28;20062;-56
2023/01/27 13:43:18;;;;;;;2.10;1.40;;;;;;;;;;5083927;28;20055;-56
2023/01/27 13:46:00;;;;;;;1.75;1.25;;;;;;;;;;5082358;28;20110;-58
2023/01/27 13:48:29;;;;;;;2.95;1.55;;;;;;;;;;5083307;28;20036;-55
2023/01/27 13:51:03;;;;;;;1.60;1.50;;;;;;;;;;5076535;28;20051;-56
2023/01/27 13:53:29;;;;;;;1.55;1.45;;;;;;;;;;5081288;28;20546;-56
2023/01/27 13:55:55;;;;;;;1.20;1.10;;;;;;;;;;5084086;28;20048;-58
2023/01/27 13:58:27;;;;;;;1.30;1.20;;;;;;;;;;5085447;28;20040;-58
2023/01/27 14:00:58;;;;;;;1.52;1.42;;;;;;;;;;5083987;28;20777;-56
2023/01/27 14:03:30;;;;;;;1.27;1.17;;;;;;;;;;5085463;28;20040;-56
2023/01/27 14:05:59;;;;;;;2.25;1.30;;;;;;;;;;5082395;28;20863;-56
2023/01/27 14:08:39;;;;;;;1.27;1.17;;;;;;;;;;5078342;28;20048;-56
2023/01/27 14:11:09;;;;;;;1.48;1.30;;;;;;;;;;5082937;28;20097;-56
2023/01/27 14:13:44;;;;;;;1.50;1.40;;;;;;;;;;5083959;28;20052;-56
2023/01/27 14:16:10;;;;;;;;;;;;;;;;;;5082896;28;20166;-56
2023/01/27 14:18:36;;;;;;;;;;;;;;;;;;5084666;28;20015;-57
2023/01/27 14:21:02;;;;;;;;;;;;;;;;;;5082818;28;20591;-56
2023/01/27 14:23:28;;;;;;;;;;;;;;;;;;5082437;28;20457;-56
2023/01/27 14:25:54;;;;;;;;;;;;;;;;;;5084842;28;19920;-56
2023/01/27 14:28:20;;;;;;;;;;;;;;;;;;5081886;28;19924;-56
2023/01/27 14:30:46;;;;;;;;;;;;;;;;;;5081991;28;19932;-56
2023/01/27 14:33:11;;;;;;;;;;;;;;;;;;5083482;28;19931;-58
2023/01/27 14:35:37;;;;;;;;;;;;;;;;;;5077524;28;20331;-56
2023/01/27 14:38:03;;;;;;;;;;;;;;;;;;5081444;28;20002;-57
2023/01/27 14:40:29;;;;;;;;;;;;;;;;;;5074541;28;19921;-57
2023/01/27 14:42:55;;;;;;;;;;;;;;;;;;5080746;28;20281;-56
2023/01/27 14:45:21;;;;;;;;;;;;;;;;;;5085047;28;19959;-57
2023/01/27 14:47:47;;;;;;;;;;;;;;;;;;5077812;28;20007;-58
2023/01/27 14:50:13;;;;;;;;;;;;;;;;;;5082976;28;19935;-56
2023/01/27 14:52:40;;;;;;;;;;;;;;;;;;5085237;28;19927;-58
2023/01/27 14:55:06;;;;;;;;;;;;;;;;;;5080202;28;19965;-58
2023/01/27 14:57:32;;;;;;;;;;;;;;;;;;5081090;28;19923;-57
2023/01/27 14:59:58;;;;;;;;;;;;;;;;;;5075738;28;19920;-58
2023/01/27 15:02:24;;;;;;;;;;;;;;;;;;5078487;28;19928;-58
2023/01/27 15:04:50;;;;;;;;;;;;;;;;;;5078897;28;19971;-57
2023/01/27 15:07:16;;;;;;;;;;;;;;;;;;5080061;28;19931;-60
2023/01/27 15:09:42;;;;;;;;;;;;;;;;;;5069758;28;19972;-58
2023/01/27 15:12:08;;;;;;;;;;;;;;;;;;5073782;28;19981;-59
2023/01/27 15:14:33;;;;;;;;;;;;;;;;;;5074226;28;20437;-57
2023/01/27 15:16:59;;;;;;;;;;;;;;;;;;5085849;28;19950;-58
2023/01/27 15:19:25;;;;;;;;;;;;;;;;;;5081101;28;19970;-55
2023/01/27 15:21:51;;;;;;;;;;;;;;;;;;5076863;28;19931;-58
2023/01/27 15:24:17;;;;;;;;;;;;;;;;;;5080979;28;20300;-58
2023/01/27 15:26:43;;;;;;;;;;;;;;;;;;5079666;28;19928;-60
2023/01/27 15:29:09;;;;;;;;;;;;;;;;;;5074680;28;20370;-59
2023/01/27 15:31:35;;;;;;;;;;;;;;;;;;5079272;28;19924;-59
2023/01/27 15:34:01;;;;;;;;;;;;;;;;;;5080142;28;19924;-58
2023/01/27 15:36:27;;;;;;;;;;;;;;;;;;5084559;28;19982;-59
2023/01/27 15:38:52;;;;;;;;;;;;;;;;;;5082033;28;20010;-62
2023/01/27 15:41:18;;;;;;;;;;;;;;;;;;5085536;28;20409;-57
2023/01/27 15:43:44;;;;;;;;;;;;;;;;;;5071182;28;19924;-57
2023/01/27 15:46:10;;;;;;;;;;;;;;;;;;5077219;28;20657;-59
2023/01/27 15:48:36;;;;;;;;;;;;;;;;;;5076398;28;19920;-57
2023/01/27 15:51:02;;;;;;;;;;;;;;;;;;5084805;28;19928;-58
2023/01/27 15:53:28;;;;;;;;;;;;;;;;;;5078297;28;20280;-58
2023/01/27 15:55:54;;;;;;;;;;;;;;;;;;5071854;28;19927;-58
2023/01/27 15:58:20;;;;;;;;;;;;;;;;;;5075157;28;19924;-57
2023/01/27 16:00:46;;;;;;;;;;;;;;;;;;5074283;28;19920;-57
2023/01/27 16:03:12;;;;;;;;;;;;;;;;;;5088698;28;19924;-57
2023/01/27 16:05:38;;;;;;;;;;;;;;;;;;5088374;28;19920;-57
2023/01/27 16:08:04;;;;;;;;;;;;;;;;;;5083012;28;19920;-59
2023/01/27 16:10:30;;;;;;;;;;;;;;;;;;5080788;28;20301;-57
2023/01/27 16:12:55;;;;;;;;;;;;;;;;;;5078959;28;19920;-57
2023/01/27 16:15:21;;;;;;;;;;;;;;;;;;5079118;28;19927;-57
2023/01/27 16:17:47;;;;;;;;;;;;;;;;;;5079833;28;20045;-56
2023/01/27 16:20:14;;;;;;;;;;;;;;;;;;5085523;28;19920;-57
2023/01/27 16:22:40;;;;;;;;;;;;;;;;;;5075795;28;19924;-57
2023/01/27 16:25:07;;;;;;;;;;;;;;;;;;5080210;28;19928;-57
2023/01/27 16:27:33;;;;;;;;;;;;;;;;;;5071520;28;19927;-57
2023/01/27 16:30:00;;;;;;;;;;;;;;;;;;5079188;28;20547;-56
2023/01/27 16:32:26;;;;;;;;;;;;;;;;;;5081709;28;19920;-59
2023/01/27 16:34:52;;;;;;;;;;;;;;;;;;5073145;28;19950;-57
2023/01/27 16:37:18;;;;;;;;;;;;;;;;;;5080915;28;20392;-57
2023/01/27 16:39:44;;;;;;;;;;;;;;;;;;5078080;28;19967;-57
2023/01/27 16:42:10;;;;;;;;;;;;;;;;;;5074780;28;19970;-56